sensor_id;sensor_type;location;lat;lon;timestamp;P1;durP1;ratioP1;P2;durP2;ratioP2
29330;SDS011;16331;52.528;13.342;2023-07-13T00:01:46;3.15;;;2.03;;
29330;SDS011;16331;52.528;13.342;2023-07-13T00:04:16;2.88;;;1.88;;
29330;SDS011;16331;52.528;13.342;2023-07-13T00:06:44;8.70;;;2.13;;
29330;SDS011;16331;52.528;13.342;2023-07-13T00:09:11;2.22;;;1.80;;
29330;SDS011;16331;52.528;13.342;2023-07-13T00:11:39;8.98;;;2.10;;
29330;SDS011;16331;52.528;13.342;2023-07-13T00:14:05;3.53;;;1.77;;
29330;SDS011;16331;52.528;13.342;2023-07-13T00:16:33;7.10;;;2.50;;
29330;SDS011;16331;52.528;13.342;2023-07-13T00:19:00;6.57;;;2.35;;
29330;SDS011;16331;52.528;13.342;2023-07-13T00:21:26;5.68;;;2.03;;
29330;SDS011;16331;52.528;13.342;2023-07-13T00:23:54;7.57;;;2.10;;
29330;SDS011;16331;52.528;13.342;2023-07-13T00:26:20;7.65;;;2.20;;
29330;SDS011;16331;52.528;13.342;2023-07-13T00:28:48;5.68;;;1.80;;
29330;SDS011;16331;52.528;13.342;2023-07-13T00:31:14;3.90;;;2.08;;
29330;SDS011;16331;52.528;13.342;2023-07-13T00:33:40;5.70;;;1.98;;
29330;SDS011;16331;52.528;13.342;2023-07-13T00:36:07;3.60;;;1.90;;
29330;SDS011;16331;52.528;13.342;2023-07-13T00:38:34;4.57;;;1.90;;
29330;SDS011;16331;52.528;13.342;2023-07-13T00:41:01;3.40;;;2.00;;
29330;SDS011;16331;52.528;13.342;2023-07-13T00:43:28;3.92;;;1.85;;
29330;SDS011;16331;52.528;13.342;2023-07-13T00:48:31;4.05;;;1.88;;
29330;SDS011;16331;52.528;13.342;2023-07-13T00:50:59;7.25;;;2.60;;
29330;SDS011;16331;52.528;13.342;2023-07-13T00:53:27;4.70;;;2.03;;
29330;SDS011;16331;52.528;13.342;2023-07-13T00:55:56;3.35;;;2.15;;
29330;SDS011;16331;52.528;13.342;2023-07-13T00:58:24;7.45;;;3.55;;
29330;SDS011;16331;52.528;13.342;2023-07-13T01:00:52;6.68;;;3.03;;
29330;SDS011;16331;52.528;13.342;2023-07-13T01:03:19;10.05;;;2.40;;
29330;SDS011;16331;52.528;13.342;2023-07-13T01:05:46;5.85;;;2.75;;
29330;SDS011;16331;52.528;13.342;2023-07-13T01:08:15;5.82;;;3.08;;
29330;SDS011;16331;52.528;13.342;2023-07-13T01:10:41;5.90;;;2.67;;
29330;SDS011;16331;52.528;13.342;2023-07-13T01:13:15;5.65;;;2.45;;
29330;SDS011;16331;52.528;13.342;2023-07-13T01:15:43;5.45;;;2.53;;
29330;SDS011;16331;52.528;13.342;2023-07-13T01:18:15;4.15;;;2.42;;
29330;SDS011;16331;52.528;13.342;2023-07-13T01:20:55;6.80;;;2.88;;
29330;SDS011;16331;52.528;13.342;2023-07-13T01:23:23;5.57;;;2.55;;
29330;SDS011;16331;52.528;13.342;2023-07-13T01:25:51;5.45;;;2.83;;
29330;SDS011;16331;52.528;13.342;2023-07-13T01:28:18;5.93;;;2.78;;
29330;SDS011;16331;52.528;13.342;2023-07-13T01:30:45;7.45;;;2.60;;
29330;SDS011;16331;52.528;13.342;2023-07-13T01:33:14;5.47;;;2.67;;
29330;SDS011;16331;52.528;13.342;2023-07-13T01:35:42;7.07;;;3.65;;
29330;SDS011;16331;52.528;13.342;2023-07-13T01:38:12;7.03;;;3.00;;
29330;SDS011;16331;52.528;13.342;2023-07-13T01:40:42;6.43;;;3.28;;
29330;SDS011;16331;52.528;13.342;2023-07-13T01:43:09;6.22;;;3.15;;
29330;SDS011;16331;52.528;13.342;2023-07-13T01:45:36;11.88;;;3.63;;
29330;SDS011;16331;52.528;13.342;2023-07-13T01:48:03;9.93;;;2.97;;
29330;SDS011;16331;52.528;13.342;2023-07-13T01:50:33;6.55;;;3.72;;
29330;SDS011;16331;52.528;13.342;2023-07-13T01:53:00;8.25;;;2.63;;
29330;SDS011;16331;52.528;13.342;2023-07-13T01:55:27;7.35;;;3.67;;
29330;SDS011;16331;52.528;13.342;2023-07-13T01:57:54;11.82;;;3.17;;
29330;SDS011;16331;52.528;13.342;2023-07-13T02:00:20;14.10;;;3.55;;
29330;SDS011;16331;52.528;13.342;2023-07-13T02:02:47;6.22;;;3.10;;
29330;SDS011;16331;52.528;13.342;2023-07-13T02:05:15;10.63;;;4.75;;
29330;SDS011;16331;52.528;13.342;2023-07-13T02:07:41;6.90;;;2.45;;
29330;SDS011;16331;52.528;13.342;2023-07-13T02:10:08;7.70;;;2.58;;
29330;SDS011;16331;52.528;13.342;2023-07-13T02:12:36;6.43;;;3.08;;
29330;SDS011;16331;52.528;13.342;2023-07-13T02:15:03;5.57;;;2.33;;
29330;SDS011;16331;52.528;13.342;2023-07-13T02:17:30;6.80;;;3.10;;
29330;SDS011;16331;52.528;13.342;2023-07-13T02:19:57;4.72;;;2.35;;
29330;SDS011;16331;52.528;13.342;2023-07-13T02:22:26;7.20;;;2.45;;
29330;SDS011;16331;52.528;13.342;2023-07-13T02:24:52;4.35;;;2.63;;
29330;SDS011;16331;52.528;13.342;2023-07-13T02:27:18;4.43;;;2.42;;
29330;SDS011;16331;52.528;13.342;2023-07-13T02:29:45;5.65;;;2.75;;
29330;SDS011;16331;52.528;13.342;2023-07-13T02:32:11;6.10;;;2.97;;
29330;SDS011;16331;52.528;13.342;2023-07-13T02:34:38;6.45;;;2.40;;
29330;SDS011;16331;52.528;13.342;2023-07-13T02:37:05;5.65;;;2.45;;
29330;SDS011;16331;52.528;13.342;2023-07-13T02:39:31;6.45;;;2.90;;
29330;SDS011;16331;52.528;13.342;2023-07-13T02:41:58;7.63;;;2.75;;
29330;SDS011;16331;52.528;13.342;2023-07-13T02:44:25;3.83;;;2.80;;
29330;SDS011;16331;52.528;13.342;2023-07-13T02:46:51;7.35;;;2.70;;
29330;SDS011;16331;52.528;13.342;2023-07-13T02:49:17;5.07;;;2.17;;
29330;SDS011;16331;52.528;13.342;2023-07-13T02:51:44;3.25;;;2.17;;
29330;SDS011;16331;52.528;13.342;2023-07-13T02:54:10;5.10;;;2.42;;
29330;SDS011;16331;52.528;13.342;2023-07-13T02:56:38;4.53;;;2.45;;
29330;SDS011;16331;52.528;13.342;2023-07-13T02:59:05;7.05;;;2.28;;
29330;SDS011;16331;52.528;13.342;2023-07-13T03:01:31;2.95;;;1.90;;
29330;SDS011;16331;52.528;13.342;2023-07-13T03:04:00;4.72;;;2.42;;
29330;SDS011;16331;52.528;13.342;2023-07-13T03:06:26;5.18;;;2.35;;
29330;SDS011;16331;52.528;13.342;2023-07-13T03:08:55;5.43;;;2.63;;
29330;SDS011;16331;52.528;13.342;2023-07-13T03:11:21;6.43;;;2.28;;
29330;SDS011;16331;52.528;13.342;2023-07-13T03:13:48;2.38;;;1.95;;
29330;SDS011;16331;52.528;13.342;2023-07-13T03:16:14;3.60;;;2.10;;
29330;SDS011;16331;52.528;13.342;2023-07-13T03:18:41;5.38;;;1.95;;
29330;SDS011;16331;52.528;13.342;2023-07-13T03:21:07;4.63;;;3.10;;
29330;SDS011;16331;52.528;13.342;2023-07-13T03:23:34;5.57;;;2.55;;
29330;SDS011;16331;52.528;13.342;2023-07-13T03:26:07;6.50;;;2.92;;
29330;SDS011;16331;52.528;13.342;2023-07-13T03:28:36;5.93;;;2.28;;
29330;SDS011;16331;52.528;13.342;2023-07-13T03:31:03;6.18;;;3.05;;
29330;SDS011;16331;52.528;13.342;2023-07-13T03:33:40;7.63;;;2.40;;
29330;SDS011;16331;52.528;13.342;2023-07-13T03:36:09;3.80;;;2.45;;
29330;SDS011;16331;52.528;13.342;2023-07-13T03:38:38;6.47;;;2.70;;
29330;SDS011;16331;52.528;13.342;2023-07-13T03:41:04;3.40;;;2.45;;
29330;SDS011;16331;52.528;13.342;2023-07-13T03:43:31;7.03;;;3.42;;
29330;SDS011;16331;52.528;13.342;2023-07-13T03:45:58;6.72;;;2.90;;
29330;SDS011;16331;52.528;13.342;2023-07-13T03:48:24;4.18;;;2.90;;
29330;SDS011;16331;52.528;13.342;2023-07-13T03:50:51;6.97;;;3.08;;
29330;SDS011;16331;52.528;13.342;2023-07-13T03:53:17;5.40;;;2.60;;
29330;SDS011;16331;52.528;13.342;2023-07-13T03:55:44;5.93;;;2.95;;
29330;SDS011;16331;52.528;13.342;2023-07-13T03:58:29;5.32;;;2.90;;
29330;SDS011;16331;52.528;13.342;2023-07-13T04:00:58;3.78;;;2.55;;
29330;SDS011;16331;52.528;13.342;2023-07-13T04:03:25;12.07;;;4.18;;
29330;SDS011;16331;52.528;13.342;2023-07-13T04:05:54;4.05;;;2.33;;
29330;SDS011;16331;52.528;13.342;2023-07-13T04:08:24;6.82;;;2.88;;
29330;SDS011;16331;52.528;13.342;2023-07-13T04:10:51;7.30;;;3.10;;
29330;SDS011;16331;52.528;13.342;2023-07-13T04:13:18;6.10;;;2.65;;
29330;SDS011;16331;52.528;13.342;2023-07-13T04:15:44;5.05;;;2.65;;
29330;SDS011;16331;52.528;13.342;2023-07-13T04:18:10;5.85;;;3.10;;
29330;SDS011;16331;52.528;13.342;2023-07-13T04:20:36;8.73;;;3.72;;
29330;SDS011;16331;52.528;13.342;2023-07-13T04:23:03;4.95;;;3.05;;
29330;SDS011;16331;52.528;13.342;2023-07-13T04:25:29;5.20;;;3.00;;
29330;SDS011;16331;52.528;13.342;2023-07-13T04:27:55;7.63;;;3.75;;
29330;SDS011;16331;52.528;13.342;2023-07-13T04:30:22;6.72;;;3.65;;
29330;SDS011;16331;52.528;13.342;2023-07-13T04:32:48;8.45;;;3.55;;
29330;SDS011;16331;52.528;13.342;2023-07-13T04:35:16;11.55;;;3.30;;
29330;SDS011;16331;52.528;13.342;2023-07-13T04:37:45;7.38;;;3.20;;
29330;SDS011;16331;52.528;13.342;2023-07-13T04:40:15;6.97;;;3.30;;
29330;SDS011;16331;52.528;13.342;2023-07-13T04:42:42;5.03;;;3.03;;
29330;SDS011;16331;52.528;13.342;2023-07-13T04:45:09;4.05;;;3.05;;
29330;SDS011;16331;52.528;13.342;2023-07-13T04:47:37;5.50;;;3.05;;
29330;SDS011;16331;52.528;13.342;2023-07-13T04:50:05;5.88;;;3.28;;
29330;SDS011;16331;52.528;13.342;2023-07-13T04:52:33;7.68;;;3.17;;
29330;SDS011;16331;52.528;13.342;2023-07-13T04:55:00;6.95;;;4.03;;
29330;SDS011;16331;52.528;13.342;2023-07-13T04:57:27;7.78;;;4.50;;
29330;SDS011;16331;52.528;13.342;2023-07-13T04:59:53;9.50;;;3.97;;
29330;SDS011;16331;52.528;13.342;2023-07-13T05:02:20;7.07;;;3.78;;
29330;SDS011;16331;52.528;13.342;2023-07-13T05:04:47;9.48;;;4.05;;
29330;SDS011;16331;52.528;13.342;2023-07-13T05:07:13;7.57;;;3.50;;
29330;SDS011;16331;52.528;13.342;2023-07-13T05:09:39;7.13;;;3.58;;
29330;SDS011;16331;52.528;13.342;2023-07-13T05:12:06;5.85;;;3.60;;
29330;SDS011;16331;52.528;13.342;2023-07-13T05:14:33;5.28;;;3.13;;
29330;SDS011;16331;52.528;13.342;2023-07-13T05:17:00;9.13;;;3.58;;
29330;SDS011;16331;52.528;13.342;2023-07-13T05:19:26;5.72;;;3.10;;
29330;SDS011;16331;52.528;13.342;2023-07-13T05:21:52;9.27;;;4.10;;
29330;SDS011;16331;52.528;13.342;2023-07-13T05:24:18;5.93;;;3.28;;
29330;SDS011;16331;52.528;13.342;2023-07-13T05:26:45;9.40;;;2.92;;
29330;SDS011;16331;52.528;13.342;2023-07-13T05:29:11;7.38;;;2.85;;
29330;SDS011;16331;52.528;13.342;2023-07-13T05:31:37;6.57;;;2.80;;
29330;SDS011;16331;52.528;13.342;2023-07-13T05:34:03;10.77;;;2.97;;
29330;SDS011;16331;52.528;13.342;2023-07-13T05:36:30;5.90;;;2.92;;
29330;SDS011;16331;52.528;13.342;2023-07-13T05:38:56;6.70;;;2.30;;
29330;SDS011;16331;52.528;13.342;2023-07-13T05:41:24;4.82;;;2.60;;
29330;SDS011;16331;52.528;13.342;2023-07-13T05:43:52;4.82;;;2.40;;
29330;SDS011;16331;52.528;13.342;2023-07-13T05:46:18;7.15;;;2.72;;
29330;SDS011;16331;52.528;13.342;2023-07-13T05:48:44;6.35;;;3.22;;
29330;SDS011;16331;52.528;13.342;2023-07-13T05:51:13;5.97;;;2.83;;
29330;SDS011;16331;52.528;13.342;2023-07-13T05:53:39;10.00;;;2.70;;
29330;SDS011;16331;52.528;13.342;2023-07-13T05:56:08;8.02;;;2.70;;
29330;SDS011;16331;52.528;13.342;2023-07-13T05:58:36;5.43;;;2.88;;
29330;SDS011;16331;52.528;13.342;2023-07-13T06:01:04;6.05;;;2.25;;
29330;SDS011;16331;52.528;13.342;2023-07-13T06:03:32;6.70;;;2.10;;
29330;SDS011;16331;52.528;13.342;2023-07-13T06:05:58;6.30;;;2.35;;
29330;SDS011;16331;52.528;13.342;2023-07-13T06:08:28;6.53;;;2.03;;
29330;SDS011;16331;52.528;13.342;2023-07-13T06:11:10;4.78;;;2.30;;
29330;SDS011;16331;52.528;13.342;2023-07-13T06:13:42;5.38;;;2.42;;
29330;SDS011;16331;52.528;13.342;2023-07-13T06:16:08;4.95;;;2.13;;
29330;SDS011;16331;52.528;13.342;2023-07-13T06:18:39;4.25;;;2.25;;
29330;SDS011;16331;52.528;13.342;2023-07-13T06:21:16;3.38;;;1.80;;
29330;SDS011;16331;52.528;13.342;2023-07-13T06:23:47;12.20;;;2.63;;
29330;SDS011;16331;52.528;13.342;2023-07-13T06:26:14;7.45;;;2.03;;
29330;SDS011;16331;52.528;13.342;2023-07-13T06:28:41;3.78;;;1.83;;
29330;SDS011;16331;52.528;13.342;2023-07-13T06:31:08;4.82;;;1.90;;
29330;SDS011;16331;52.528;13.342;2023-07-13T06:33:36;3.38;;;2.13;;
29330;SDS011;16331;52.528;13.342;2023-07-13T06:36:03;2.15;;;1.50;;
29330;SDS011;16331;52.528;13.342;2023-07-13T06:38:31;5.32;;;1.67;;
29330;SDS011;16331;52.528;13.342;2023-07-13T06:40:57;3.63;;;1.73;;
29330;SDS011;16331;52.528;13.342;2023-07-13T06:43:23;6.30;;;1.90;;
29330;SDS011;16331;52.528;13.342;2023-07-13T06:45:54;8.55;;;1.92;;
29330;SDS011;16331;52.528;13.342;2023-07-13T06:48:21;5.30;;;1.70;;
29330;SDS011;16331;52.528;13.342;2023-07-13T06:50:48;6.93;;;1.90;;
29330;SDS011;16331;52.528;13.342;2023-07-13T06:53:15;4.80;;;1.65;;
29330;SDS011;16331;52.528;13.342;2023-07-13T06:55:44;7.35;;;2.03;;
29330;SDS011;16331;52.528;13.342;2023-07-13T06:58:11;4.43;;;1.42;;
29330;SDS011;16331;52.528;13.342;2023-07-13T07:00:37;3.35;;;1.50;;
29330;SDS011;16331;52.528;13.342;2023-07-13T07:03:05;6.70;;;1.63;;
29330;SDS011;16331;52.528;13.342;2023-07-13T07:05:32;3.20;;;1.67;;
29330;SDS011;16331;52.528;13.342;2023-07-13T07:07:59;2.47;;;1.30;;
29330;SDS011;16331;52.528;13.342;2023-07-13T07:10:25;2.28;;;1.13;;
29330;SDS011;16331;52.528;13.342;2023-07-13T07:12:55;1.42;;;1.30;;
29330;SDS011;16331;52.528;13.342;2023-07-13T07:15:21;4.85;;;1.50;;
29330;SDS011;16331;52.528;13.342;2023-07-13T07:17:47;2.60;;;1.23;;
29330;SDS011;16331;52.528;13.342;2023-07-13T07:20:13;6.68;;;2.42;;
29330;SDS011;16331;52.528;13.342;2023-07-13T07:22:40;2.55;;;1.65;;
29330;SDS011;16331;52.528;13.342;2023-07-13T07:25:06;2.78;;;1.50;;
29330;SDS011;16331;52.528;13.342;2023-07-13T07:27:32;4.22;;;1.35;;
29330;SDS011;16331;52.528;13.342;2023-07-13T07:29:59;3.88;;;1.40;;
29330;SDS011;16331;52.528;13.342;2023-07-13T07:32:29;2.08;;;1.38;;
29330;SDS011;16331;52.528;13.342;2023-07-13T07:34:56;4.72;;;1.60;;
29330;SDS011;16331;52.528;13.342;2023-07-13T07:37:23;7.38;;;1.67;;
29330;SDS011;16331;52.528;13.342;2023-07-13T07:39:49;3.05;;;1.25;;
29330;SDS011;16331;52.528;13.342;2023-07-13T07:42:15;2.83;;;1.00;;
29330;SDS011;16331;52.528;13.342;2023-07-13T07:44:44;7.75;;;1.38;;
29330;SDS011;16331;52.528;13.342;2023-07-13T07:47:10;4.60;;;1.20;;
29330;SDS011;16331;52.528;13.342;2023-07-13T07:49:37;2.67;;;1.35;;
29330;SDS011;16331;52.528;13.342;2023-07-13T07:52:03;3.35;;;1.08;;
29330;SDS011;16331;52.528;13.342;2023-07-13T07:54:30;3.15;;;1.50;;
29330;SDS011;16331;52.528;13.342;2023-07-13T07:56:56;6.40;;;1.20;;
29330;SDS011;16331;52.528;13.342;2023-07-13T07:59:23;6.82;;;1.23;;
29330;SDS011;16331;52.528;13.342;2023-07-13T08:01:49;3.53;;;1.30;;
29330;SDS011;16331;52.528;13.342;2023-07-13T08:04:15;4.32;;;1.40;;
29330;SDS011;16331;52.528;13.342;2023-07-13T08:06:41;1.65;;;1.17;;
29330;SDS011;16331;52.528;13.342;2023-07-13T08:09:08;1.70;;;1.15;;
29330;SDS011;16331;52.528;13.342;2023-07-13T08:11:35;3.35;;;1.25;;
29330;SDS011;16331;52.528;13.342;2023-07-13T08:14:02;3.53;;;1.27;;
29330;SDS011;16331;52.528;13.342;2023-07-13T08:16:29;2.95;;;1.30;;
29330;SDS011;16331;52.528;13.342;2023-07-13T08:18:56;4.78;;;1.60;;
29330;SDS011;16331;52.528;13.342;2023-07-13T08:21:22;7.68;;;1.60;;
29330;SDS011;16331;52.528;13.342;2023-07-13T08:23:49;2.03;;;1.10;;
29330;SDS011;16331;52.528;13.342;2023-07-13T08:26:16;3.95;;;1.60;;
29330;SDS011;16331;52.528;13.342;2023-07-13T08:28:44;3.60;;;1.60;;
29330;SDS011;16331;52.528;13.342;2023-07-13T08:31:13;5.55;;;1.48;;
29330;SDS011;16331;52.528;13.342;2023-07-13T08:33:40;3.20;;;1.50;;
29330;SDS011;16331;52.528;13.342;2023-07-13T08:36:11;3.58;;;1.08;;
29330;SDS011;16331;52.528;13.342;2023-07-13T08:38:37;3.20;;;2.35;;
29330;SDS011;16331;52.528;13.342;2023-07-13T08:41:11;4.30;;;0.82;;
29330;SDS011;16331;52.528;13.342;2023-07-13T08:43:39;2.10;;;1.10;;
29330;SDS011;16331;52.528;13.342;2023-07-13T08:46:13;3.72;;;1.42;;
29330;SDS011;16331;52.528;13.342;2023-07-13T08:48:51;4.25;;;2.47;;
29330;SDS011;16331;52.528;13.342;2023-07-13T08:54:31;3.42;;;1.00;;
29330;SDS011;16331;52.528;13.342;2023-07-13T08:57:13;4.15;;;0.98;;
29330;SDS011;16331;52.528;13.342;2023-07-13T08:59:41;2.60;;;1.00;;
29330;SDS011;16331;52.528;13.342;2023-07-13T09:04:54;3.13;;;1.05;;
29330;SDS011;16331;52.528;13.342;2023-07-13T09:08:05;1.42;;;0.90;;
29330;SDS011;16331;52.528;13.342;2023-07-13T09:10:41;3.33;;;1.08;;
29330;SDS011;16331;52.528;13.342;2023-07-13T09:16:41;3.22;;;0.90;;
29330;SDS011;16331;52.528;13.342;2023-07-13T09:19:14;5.55;;;1.00;;
29330;SDS011;16331;52.528;13.342;2023-07-13T09:22:10;3.55;;;1.10;;
29330;SDS011;16331;52.528;13.342;2023-07-13T09:27:26;4.43;;;0.90;;
29330;SDS011;16331;52.528;13.342;2023-07-13T09:32:45;3.70;;;1.42;;
29330;SDS011;16331;52.528;13.342;2023-07-13T09:35:16;10.30;;;1.70;;
29330;SDS011;16331;52.528;13.342;2023-07-13T09:37:57;14.63;;;1.50;;
29330;SDS011;16331;52.528;13.342;2023-07-13T09:40:30;2.63;;;1.30;;
29330;SDS011;16331;52.528;13.342;2023-07-13T09:43:07;2.60;;;1.27;;
29330;SDS011;16331;52.528;13.342;2023-07-13T09:45:45;6.18;;;1.50;;
29330;SDS011;16331;52.528;13.342;2023-07-13T09:48:14;4.07;;;1.30;;
29330;SDS011;16331;52.528;13.342;2023-07-13T09:53:35;3.47;;;1.75;;
29330;SDS011;16331;52.528;13.342;2023-07-13T09:56:03;4.05;;;1.80;;
29330;SDS011;16331;52.528;13.342;2023-07-13T09:58:43;6.80;;;2.50;;
29330;SDS011;16331;52.528;13.342;2023-07-13T10:01:10;5.63;;;2.13;;
29330;SDS011;16331;52.528;13.342;2023-07-13T10:03:56;7.45;;;1.95;;
29330;SDS011;16331;52.528;13.342;2023-07-13T10:06:23;7.53;;;2.47;;
29330;SDS011;16331;52.528;13.342;2023-07-13T10:08:52;6.28;;;2.10;;
29330;SDS011;16331;52.528;13.342;2023-07-13T10:11:23;4.78;;;2.08;;
29330;SDS011;16331;52.528;13.342;2023-07-13T10:13:59;4.82;;;1.75;;
29330;SDS011;16331;52.528;13.342;2023-07-13T10:16:32;2.70;;;1.80;;
29330;SDS011;16331;52.528;13.342;2023-07-13T10:19:13;5.82;;;2.40;;
29330;SDS011;16331;52.528;13.342;2023-07-13T10:21:49;5.90;;;1.60;;
29330;SDS011;16331;52.528;13.342;2023-07-13T10:24:21;3.88;;;2.20;;
29330;SDS011;16331;52.528;13.342;2023-07-13T10:26:53;3.40;;;1.55;;
29330;SDS011;16331;52.528;13.342;2023-07-13T10:29:44;3.83;;;1.45;;
29330;SDS011;16331;52.528;13.342;2023-07-13T10:32:39;3.35;;;1.42;;
29330;SDS011;16331;52.528;13.342;2023-07-13T10:35:08;3.25;;;1.80;;
29330;SDS011;16331;52.528;13.342;2023-07-13T10:37:52;5.40;;;1.77;;
29330;SDS011;16331;52.528;13.342;2023-07-13T10:40:38;3.10;;;1.70;;
29330;SDS011;16331;52.528;13.342;2023-07-13T10:43:15;3.72;;;1.90;;
29330;SDS011;16331;52.528;13.342;2023-07-13T10:45:49;4.28;;;2.60;;
29330;SDS011;16331;52.528;13.342;2023-07-13T10:48:16;2.58;;;1.88;;
29330;SDS011;16331;52.528;13.342;2023-07-13T10:50:44;9.50;;;1.83;;
29330;SDS011;16331;52.528;13.342;2023-07-13T10:53:31;5.05;;;1.77;;
29330;SDS011;16331;52.528;13.342;2023-07-13T10:56:00;5.00;;;2.00;;
29330;SDS011;16331;52.528;13.342;2023-07-13T10:58:35;4.40;;;1.70;;
29330;SDS011;16331;52.528;13.342;2023-07-13T11:01:16;5.15;;;2.15;;
29330;SDS011;16331;52.528;13.342;2023-07-13T11:04:18;5.22;;;2.03;;
29330;SDS011;16331;52.528;13.342;2023-07-13T11:06:46;7.05;;;2.03;;
29330;SDS011;16331;52.528;13.342;2023-07-13T11:09:20;5.68;;;2.03;;
29330;SDS011;16331;52.528;13.342;2023-07-13T11:11:58;2.78;;;1.85;;
29330;SDS011;16331;52.528;13.342;2023-07-13T11:14:36;4.03;;;1.35;;
29330;SDS011;16331;52.528;13.342;2023-07-13T11:22:47;5.97;;;2.10;;
29330;SDS011;16331;52.528;13.342;2023-07-13T11:25:32;3.85;;;2.05;;
29330;SDS011;16331;52.528;13.342;2023-07-13T11:30:43;2.17;;;1.13;;
29330;SDS011;16331;52.528;13.342;2023-07-13T11:33:24;2.85;;;1.38;;
29330;SDS011;16331;52.528;13.342;2023-07-13T11:38:37;3.05;;;1.05;;
29330;SDS011;16331;52.528;13.342;2023-07-13T11:41:07;6.18;;;1.48;;
29330;SDS011;16331;52.528;13.342;2023-07-13T11:43:48;3.47;;;1.20;;
29330;SDS011;16331;52.528;13.342;2023-07-13T11:46:23;1.08;;;0.98;;
29330;SDS011;16331;52.528;13.342;2023-07-13T11:48:56;3.88;;;1.42;;
29330;SDS011;16331;52.528;13.342;2023-07-13T11:51:29;1.50;;;1.08;;
29330;SDS011;16331;52.528;13.342;2023-07-13T11:54:23;8.80;;;1.60;;
29330;SDS011;16331;52.528;13.342;2023-07-13T11:56:58;3.35;;;1.60;;
29330;SDS011;16331;52.528;13.342;2023-07-13T11:59:40;6.10;;;1.23;;
29330;SDS011;16331;52.528;13.342;2023-07-13T12:02:25;1.58;;;1.13;;
29330;SDS011;16331;52.528;13.342;2023-07-13T12:04:55;8.43;;;1.48;;
29330;SDS011;16331;52.528;13.342;2023-07-13T12:07:28;2.20;;;1.40;;
29330;SDS011;16331;52.528;13.342;2023-07-13T12:10:00;3.03;;;1.27;;
29330;SDS011;16331;52.528;13.342;2023-07-13T12:12:45;3.72;;;1.52;;
29330;SDS011;16331;52.528;13.342;2023-07-13T12:15:28;3.45;;;1.20;;
29330;SDS011;16331;52.528;13.342;2023-07-13T12:18:00;2.55;;;0.95;;
29330;SDS011;16331;52.528;13.342;2023-07-13T12:20:27;6.28;;;1.15;;
29330;SDS011;16331;52.528;13.342;2023-07-13T12:22:59;3.83;;;1.50;;
29330;SDS011;16331;52.528;13.342;2023-07-13T12:25:27;4.70;;;1.20;;
29330;SDS011;16331;52.528;13.342;2023-07-13T12:27:55;5.00;;;1.25;;
29330;SDS011;16331;52.528;13.342;2023-07-13T12:30:26;6.03;;;1.42;;
29330;SDS011;16331;52.528;13.342;2023-07-13T12:32:59;3.90;;;1.00;;
29330;SDS011;16331;52.528;13.342;2023-07-13T12:35:40;9.85;;;1.33;;
29330;SDS011;16331;52.528;13.342;2023-07-13T12:38:21;5.13;;;1.02;;
29330;SDS011;16331;52.528;13.342;2023-07-13T12:40:55;4.55;;;1.17;;
29330;SDS011;16331;52.528;13.342;2023-07-13T12:43:23;2.35;;;1.05;;
29330;SDS011;16331;52.528;13.342;2023-07-13T12:49:05;2.95;;;1.15;;
29330;SDS011;16331;52.528;13.342;2023-07-13T12:51:33;4.50;;;1.17;;
29330;SDS011;16331;52.528;13.342;2023-07-13T12:54:17;6.43;;;1.13;;
29330;SDS011;16331;52.528;13.342;2023-07-13T12:56:44;1.73;;;1.00;;
29330;SDS011;16331;52.528;13.342;2023-07-13T12:59:18;3.92;;;1.08;;
29330;SDS011;16331;52.528;13.342;2023-07-13T13:01:46;4.93;;;1.00;;
29330;SDS011;16331;52.528;13.342;2023-07-13T13:04:14;4.30;;;1.50;;
29330;SDS011;16331;52.528;13.342;2023-07-13T13:06:42;2.22;;;1.23;;
29330;SDS011;16331;52.528;13.342;2023-07-13T13:09:13;5.53;;;0.88;;
29330;SDS011;16331;52.528;13.342;2023-07-13T13:11:43;6.72;;;1.25;;
29330;SDS011;16331;52.528;13.342;2023-07-13T13:14:09;7.47;;;1.58;;
29330;SDS011;16331;52.528;13.342;2023-07-13T13:16:50;6.15;;;1.10;;
29330;SDS011;16331;52.528;13.342;2023-07-13T13:19:20;3.83;;;1.10;;
29330;SDS011;16331;52.528;13.342;2023-07-13T13:21:53;3.22;;;1.00;;
29330;SDS011;16331;52.528;13.342;2023-07-13T13:24:21;2.50;;;1.13;;
29330;SDS011;16331;52.528;13.342;2023-07-13T13:26:50;2.08;;;1.00;;
29330;SDS011;16331;52.528;13.342;2023-07-13T13:29:23;1.88;;;1.10;;
29330;SDS011;16331;52.528;13.342;2023-07-13T13:31:50;1.92;;;0.88;;
29330;SDS011;16331;52.528;13.342;2023-07-13T13:36:48;2.17;;;1.10;;
29330;SDS011;16331;52.528;13.342;2023-07-13T13:39:21;5.93;;;1.10;;
29330;SDS011;16331;52.528;13.342;2023-07-13T13:41:50;1.13;;;0.68;;
29330;SDS011;16331;52.528;13.342;2023-07-13T13:44:18;3.13;;;0.88;;
29330;SDS011;16331;52.528;13.342;2023-07-13T13:46:52;2.47;;;0.70;;
29330;SDS011;16331;52.528;13.342;2023-07-13T13:49:29;5.05;;;1.00;;
29330;SDS011;16331;52.528;13.342;2023-07-13T13:51:55;4.85;;;1.00;;
29330;SDS011;16331;52.528;13.342;2023-07-13T13:54:23;2.13;;;1.10;;
29330;SDS011;16331;52.528;13.342;2023-07-13T13:56:52;5.65;;;1.00;;
29330;SDS011;16331;52.528;13.342;2023-07-13T13:59:18;4.03;;;0.90;;
29330;SDS011;16331;52.528;13.342;2023-07-13T14:01:46;3.42;;;1.65;;
29330;SDS011;16331;52.528;13.342;2023-07-13T14:04:14;5.20;;;0.80;;
29330;SDS011;16331;52.528;13.342;2023-07-13T14:06:58;1.92;;;0.73;;
29330;SDS011;16331;52.528;13.342;2023-07-13T14:09:46;3.47;;;1.00;;
29330;SDS011;16331;52.528;13.342;2023-07-13T14:12:15;2.58;;;0.60;;
29330;SDS011;16331;52.528;13.342;2023-07-13T14:14:46;1.45;;;0.98;;
29330;SDS011;16331;52.528;13.342;2023-07-13T14:17:46;5.43;;;1.45;;
29330;SDS011;16331;52.528;13.342;2023-07-13T14:20:15;5.05;;;1.00;;
29330;SDS011;16331;52.528;13.342;2023-07-13T14:22:43;3.70;;;0.90;;
29330;SDS011;16331;52.528;13.342;2023-07-13T14:25:13;2.97;;;1.00;;
29330;SDS011;16331;52.528;13.342;2023-07-13T14:27:41;5.07;;;1.20;;
29330;SDS011;16331;52.528;13.342;2023-07-13T14:30:14;5.03;;;0.95;;
29330;SDS011;16331;52.528;13.342;2023-07-13T14:32:42;5.30;;;0.90;;
29330;SDS011;16331;52.528;13.342;2023-07-13T14:35:19;2.53;;;0.85;;
29330;SDS011;16331;52.528;13.342;2023-07-13T14:37:49;2.78;;;1.13;;
29330;SDS011;16331;52.528;13.342;2023-07-13T14:40:21;3.28;;;1.10;;
29330;SDS011;16331;52.528;13.342;2023-07-13T14:42:56;2.38;;;0.80;;
29330;SDS011;16331;52.528;13.342;2023-07-13T14:45:29;6.47;;;1.02;;
29330;SDS011;16331;52.528;13.342;2023-07-13T14:48:11;4.32;;;1.13;;
29330;SDS011;16331;52.528;13.342;2023-07-13T14:51:07;4.57;;;0.95;;
29330;SDS011;16331;52.528;13.342;2023-07-13T14:53:53;4.00;;;0.82;;
29330;SDS011;16331;52.528;13.342;2023-07-13T14:56:20;2.17;;;0.80;;
29330;SDS011;16331;52.528;13.342;2023-07-13T14:58:49;2.13;;;1.17;;
29330;SDS011;16331;52.528;13.342;2023-07-13T15:01:36;4.25;;;0.70;;
29330;SDS011;16331;52.528;13.342;2023-07-13T15:04:10;3.90;;;0.90;;
29330;SDS011;16331;52.528;13.342;2023-07-13T15:09:28;2.67;;;0.70;;
29330;SDS011;16331;52.528;13.342;2023-07-13T15:11:55;2.75;;;0.77;;
29330;SDS011;16331;52.528;13.342;2023-07-13T15:14:22;0.88;;;0.65;;
29330;SDS011;16331;52.528;13.342;2023-07-13T15:16:53;2.00;;;0.80;;
29330;SDS011;16331;52.528;13.342;2023-07-13T15:19:29;2.80;;;0.60;;
29330;SDS011;16331;52.528;13.342;2023-07-13T15:21:56;1.13;;;0.65;;
29330;SDS011;16331;52.528;13.342;2023-07-13T15:24:29;1.85;;;0.57;;
29330;SDS011;16331;52.528;13.342;2023-07-13T15:26:55;1.70;;;0.60;;
29330;SDS011;16331;52.528;13.342;2023-07-13T15:29:22;4.45;;;0.60;;
29330;SDS011;16331;52.528;13.342;2023-07-13T15:31:49;1.67;;;0.60;;